createdAt,value
2024-01-16T00:02:01.696Z,2.42
2024-01-16T00:04:30.972Z,1.90
2024-01-16T00:06:57.366Z,1.50
2024-01-16T00:09:24.500Z,2.28
2024-01-16T00:11:51.097Z,2.63
2024-01-16T00:14:17.612Z,1.85
2024-01-16T00:16:44.854Z,1.80
2024-01-16T00:19:11.745Z,2.00
2024-01-16T00:21:41.710Z,1.83
2024-01-16T00:24:08.406Z,1.20
2024-01-16T00:26:35.107Z,2.25
2024-01-16T00:29:02.272Z,1.27
2024-01-16T00:31:28.732Z,1.55
2024-01-16T00:33:55.475Z,1.38
2024-01-16T00:36:22.428Z,1.17
2024-01-16T00:38:49.451Z,1.05
2024-01-16T00:41:16.155Z,1.33
2024-01-16T00:43:43.908Z,1.33
2024-01-16T00:46:10.436Z,1.67
2024-01-16T00:48:36.884Z,1.63
2024-01-16T00:51:04.102Z,1.48
2024-01-16T00:53:30.497Z,1.23
2024-01-16T00:55:57.096Z,1.17
2024-01-16T00:58:23.535Z,1.48
2024-01-16T01:00:50.139Z,2.05
2024-01-16T01:03:16.740Z,1.42
2024-01-16T01:05:43.951Z,1.65
2024-01-16T01:08:10.378Z,1.15
2024-01-16T01:10:36.772Z,1.20
2024-01-16T01:13:03.165Z,1.67
2024-01-16T01:15:29.604Z,1.55
2024-01-16T01:17:56.069Z,1.27
2024-01-16T01:20:22.882Z,1.60
2024-01-16T01:22:49.325Z,2.67
2024-01-16T01:25:15.645Z,1.20
2024-01-16T01:27:41.993Z,1.60
2024-01-16T01:30:10.686Z,1.50
2024-01-16T01:32:37.372Z,1.73
2024-01-16T01:35:04.275Z,2.25
2024-01-16T01:37:30.674Z,2.40
2024-01-16T01:39:56.982Z,1.50
2024-01-16T01:42:23.666Z,2.15
2024-01-16T01:44:50.122Z,1.10
2024-01-16T01:47:16.433Z,1.92
2024-01-16T01:49:42.858Z,1.30
2024-01-16T01:52:09.653Z,1.52
2024-01-16T01:54:37.128Z,1.75
2024-01-16T01:57:03.824Z,1.83
2024-01-16T01:59:33.718Z,1.38
2024-01-16T02:02:00.338Z,1.83
2024-01-16T02:04:27.310Z,1.23
2024-01-16T02:06:54.384Z,1.42
2024-01-16T02:09:21.383Z,1.45
2024-01-16T02:11:47.984Z,1.10
2024-01-16T02:14:14.554Z,0.88
2024-01-16T02:16:41.857Z,0.98
2024-01-16T02:19:08.674Z,0.80
2024-01-16T02:21:39.931Z,0.80
2024-01-16T02:24:10.821Z,1.17
2024-01-16T02:26:37.209Z,1.00
2024-01-16T02:29:07.237Z,1.30
2024-01-16T02:31:34.101Z,1.20
2024-01-16T02:34:01.042Z,1.15
2024-01-16T02:36:28.072Z,1.10
2024-01-16T02:38:54.422Z,1.33
2024-01-16T02:41:21.277Z,0.90
2024-01-16T02:43:47.950Z,1.40
2024-01-16T02:46:14.994Z,1.08
2024-01-16T02:48:43.475Z,1.10
2024-01-16T02:51:10.100Z,0.75
2024-01-16T02:53:36.578Z,1.05
2024-01-16T02:56:03.040Z,1.00
2024-01-16T02:58:29.885Z,0.95
2024-01-16T03:00:56.315Z,0.90
2024-01-16T03:03:22.875Z,0.90
2024-01-16T03:05:49.369Z,0.90
2024-01-16T03:08:15.949Z,0.85
2024-01-16T03:10:42.816Z,1.33
2024-01-16T03:13:09.195Z,0.73
2024-01-16T03:15:36.126Z,0.90
2024-01-16T03:18:02.681Z,0.90
2024-01-16T03:20:29.356Z,0.50
2024-01-16T03:22:55.844Z,1.77
2024-01-16T03:25:22.685Z,0.60
2024-01-16T03:27:49.008Z,0.52
2024-01-16T03:30:15.511Z,0.90
2024-01-16T03:32:41.999Z,0.80
2024-01-16T03:35:08.663Z,0.82
2024-01-16T03:37:35.075Z,0.85
2024-01-16T03:40:01.768Z,1.02
2024-01-16T03:42:28.220Z,0.45
2024-01-16T03:44:54.602Z,0.50
2024-01-16T03:47:21.637Z,0.50
2024-01-16T03:49:48.064Z,0.85
2024-01-16T03:52:14.565Z,0.70
2024-01-16T03:54:40.919Z,1.13
2024-01-16T03:57:07.645Z,0.70
2024-01-16T03:59:34.086Z,0.50
2024-01-16T04:02:01.436Z,0.68
2024-01-16T04:04:27.934Z,0.75
2024-01-16T04:06:54.405Z,0.77
2024-01-16T04:09:21.235Z,0.93
2024-01-16T04:11:50.807Z,0.68
2024-01-16T04:14:17.219Z,0.50
2024-01-16T04:16:44.004Z,0.88
2024-01-16T04:19:10.493Z,0.90
2024-01-16T04:21:37.625Z,1.02
2024-01-16T04:24:04.117Z,0.75
2024-01-16T04:26:30.486Z,0.70
2024-01-16T04:28:56.896Z,0.73
2024-01-16T04:31:23.444Z,0.90
2024-01-16T04:33:50.000Z,0.60
2024-01-16T04:36:16.497Z,0.90
2024-01-16T04:38:43.136Z,0.70
2024-01-16T04:41:09.576Z,0.80
2024-01-16T04:43:35.929Z,0.90
2024-01-16T04:46:03.945Z,0.70
2024-01-16T04:48:30.651Z,1.35
2024-01-16T04:50:57.279Z,0.90
2024-01-16T04:53:23.837Z,1.77
2024-01-16T04:55:50.202Z,1.00
2024-01-16T04:58:16.539Z,1.38
2024-01-16T05:00:43.160Z,0.90
2024-01-16T05:03:09.533Z,0.88
2024-01-16T05:05:36.120Z,0.93
2024-01-16T05:08:03.867Z,1.52
2024-01-16T05:10:30.417Z,1.10
2024-01-16T05:12:56.726Z,1.10
2024-01-16T05:15:23.175Z,1.17
2024-01-16T05:17:49.683Z,1.48
2024-01-16T05:20:16.494Z,1.20
2024-01-16T05:22:43.057Z,1.17
2024-01-16T05:25:09.615Z,1.25
2024-01-16T05:27:36.105Z,1.35
2024-01-16T05:30:02.512Z,1.40
2024-01-16T05:32:29.080Z,1.58
2024-01-16T05:34:55.547Z,1.70
2024-01-16T05:37:21.919Z,1.63
2024-01-16T05:39:48.320Z,1.35
2024-01-16T05:42:14.802Z,1.73
2024-01-16T05:44:41.301Z,1.63
2024-01-16T05:47:07.703Z,1.65
2024-01-16T05:49:34.363Z,1.63
2024-01-16T05:52:00.874Z,3.13
2024-01-16T05:54:27.257Z,1.92
2024-01-16T05:56:53.665Z,2.17
2024-01-16T05:59:20.111Z,2.05
2024-01-16T06:01:46.462Z,1.70
2024-01-16T06:04:14.805Z,2.10
2024-01-16T06:06:45.804Z,2.17
2024-01-16T06:09:15.278Z,2.10
2024-01-16T06:11:42.141Z,1.80
2024-01-16T06:14:08.980Z,2.50
2024-01-16T06:16:35.410Z,2.00
2024-01-16T06:19:01.926Z,2.40
2024-01-16T06:21:28.439Z,2.72
2024-01-16T06:23:54.898Z,2.22
2024-01-16T06:26:21.294Z,2.47
2024-01-16T06:28:47.883Z,2.22
2024-01-16T06:31:14.350Z,2.00
2024-01-16T06:33:40.810Z,2.35
2024-01-16T06:36:07.912Z,1.83
2024-01-16T06:38:34.461Z,2.55
2024-01-16T06:41:01.791Z,1.77
2024-01-16T06:43:28.867Z,1.85
2024-01-16T06:45:55.680Z,1.67
2024-01-16T06:48:22.308Z,1.48
2024-01-16T06:50:49.173Z,2.40
2024-01-16T06:53:17.333Z,1.30
2024-01-16T06:55:44.207Z,1.95
2024-01-16T06:58:11.423Z,1.42
2024-01-16T07:00:37.952Z,1.83
2024-01-16T07:03:04.660Z,1.30
2024-01-16T07:05:31.194Z,2.08
2024-01-16T07:07:57.671Z,1.85
2024-01-16T07:10:25.255Z,1.63
2024-01-16T07:12:52.986Z,2.25
2024-01-16T07:15:19.711Z,2.22
2024-01-16T07:17:46.304Z,2.50
2024-01-16T07:20:13.182Z,2.38
2024-01-16T07:22:40.695Z,2.50
2024-01-16T07:25:07.858Z,2.30
2024-01-16T07:27:35.165Z,3.65
2024-01-16T07:30:01.915Z,3.38
2024-01-16T07:32:30.840Z,4.15
2024-01-16T07:34:58.689Z,4.43
2024-01-16T07:37:25.082Z,4.22
2024-01-16T07:39:51.622Z,5.30
2024-01-16T07:42:17.989Z,5.18
2024-01-16T07:44:44.397Z,4.88
2024-01-16T07:47:10.894Z,6.18
2024-01-16T07:49:37.350Z,5.63
2024-01-16T07:52:03.872Z,5.45
2024-01-16T07:54:30.275Z,6.45
2024-01-16T07:56:56.709Z,6.85
2024-01-16T07:59:23.234Z,6.78
2024-01-16T08:01:49.642Z,6.57
2024-01-16T08:04:16.148Z,6.45
2024-01-16T08:06:43.610Z,7.63
2024-01-16T08:09:12.686Z,6.63
2024-01-16T08:11:40.697Z,6.57
2024-01-16T08:14:07.298Z,6.78
2024-01-16T08:16:33.831Z,7.43
2024-01-16T08:19:00.205Z,5.80
2024-01-16T08:21:27.209Z,6.10
2024-01-16T08:23:53.807Z,6.30
2024-01-16T08:26:20.687Z,7.40
2024-01-16T08:28:47.257Z,7.07
2024-01-16T08:31:13.645Z,5.97
2024-01-16T08:33:45.882Z,6.95
2024-01-16T08:36:14.312Z,6.47
2024-01-16T08:38:40.860Z,6.53
2024-01-16T08:41:07.541Z,5.78
2024-01-16T08:43:34.718Z,6.13
2024-01-16T08:46:01.137Z,5.68
2024-01-16T08:48:27.860Z,6.00
2024-01-16T08:50:57.775Z,5.72
2024-01-16T08:53:24.705Z,4.78
2024-01-16T08:55:51.301Z,4.65
2024-01-16T08:58:17.895Z,4.63
2024-01-16T09:00:44.339Z,4.97
2024-01-16T09:03:10.726Z,4.22
2024-01-16T09:05:40.441Z,4.40
2024-01-16T09:08:09.716Z,4.30
2024-01-16T09:10:37.379Z,3.80
2024-01-16T09:13:03.812Z,3.50
2024-01-16T09:15:30.149Z,4.20
2024-01-16T09:17:56.747Z,3.42
2024-01-16T09:20:23.292Z,3.15
2024-01-16T09:22:49.773Z,3.35
2024-01-16T09:25:17.218Z,4.00
2024-01-16T09:27:43.614Z,3.92
2024-01-16T09:30:10.147Z,3.65
2024-01-16T09:32:36.859Z,3.53
2024-01-16T09:35:05.437Z,3.00
2024-01-16T09:37:31.947Z,3.85
2024-01-16T09:39:58.359Z,3.20
2024-01-16T09:42:25.693Z,4.63
2024-01-16T09:44:53.167Z,3.38
2024-01-16T09:47:20.070Z,3.38
2024-01-16T09:49:47.584Z,3.63
2024-01-16T09:52:14.705Z,3.88
2024-01-16T09:54:41.176Z,2.83
2024-01-16T09:57:08.210Z,4.35
2024-01-16T09:59:36.963Z,3.78
2024-01-16T10:02:07.715Z,3.05
2024-01-16T10:04:35.069Z,3.17
2024-01-16T10:07:02.986Z,2.92
2024-01-16T10:09:30.446Z,2.88
2024-01-16T10:11:56.933Z,3.40
2024-01-16T10:14:24.227Z,3.53
2024-01-16T10:17:00.564Z,3.45
2024-01-16T10:19:42.241Z,5.57
2024-01-16T10:22:13.336Z,4.28
2024-01-16T10:24:41.689Z,3.72
2024-01-16T10:27:08.084Z,5.25
2024-01-16T10:29:43.444Z,3.40
2024-01-16T10:32:27.844Z,3.22
2024-01-16T10:35:02.324Z,3.42
2024-01-16T10:37:28.949Z,3.13
2024-01-16T10:39:55.408Z,2.42
2024-01-16T10:42:22.006Z,2.75
2024-01-16T10:44:55.799Z,2.83
2024-01-16T10:47:23.108Z,3.40
2024-01-16T10:49:49.692Z,2.40
2024-01-16T10:52:18.590Z,3.22
2024-01-16T10:54:47.964Z,3.35
2024-01-16T10:57:14.426Z,3.70
2024-01-16T10:59:40.816Z,2.97
2024-01-16T11:02:10.841Z,3.10
2024-01-16T11:04:38.701Z,12.80
2024-01-16T11:07:05.665Z,10.30
2024-01-16T11:09:32.782Z,2.38
2024-01-16T11:11:59.889Z,3.10
2024-01-16T11:14:27.048Z,2.88
2024-01-16T11:16:54.533Z,3.33
2024-01-16T11:19:37.813Z,5.28
2024-01-16T11:22:08.256Z,2.40
2024-01-16T11:24:34.597Z,3.85
2024-01-16T11:27:01.002Z,2.80
2024-01-16T11:29:27.517Z,3.38
2024-01-16T11:32:04.720Z,4.18
2024-01-16T11:34:43.596Z,3.90
2024-01-16T11:37:13.646Z,2.83
2024-01-16T11:39:41.577Z,2.50
2024-01-16T11:42:10.160Z,2.95
2024-01-16T11:44:41.379Z,2.50
2024-01-16T11:47:08.584Z,2.17
2024-01-16T11:49:35.024Z,2.60
2024-01-16T11:52:01.622Z,2.55
2024-01-16T11:54:28.113Z,8.57
2024-01-16T11:57:13.362Z,4.25
2024-01-16T11:59:58.365Z,2.85
2024-01-16T12:02:30.024Z,3.13
2024-01-16T12:05:04.266Z,3.10
2024-01-16T12:07:30.858Z,4.00
2024-01-16T12:10:01.912Z,2.08
2024-01-16T12:12:28.342Z,7.95
2024-01-16T12:14:54.901Z,4.55
2024-01-16T12:17:21.748Z,6.03
2024-01-16T12:19:48.548Z,6.05
2024-01-16T12:22:15.193Z,2.67
2024-01-16T12:24:41.872Z,2.83
2024-01-16T12:27:09.453Z,2.38
2024-01-16T12:29:36.320Z,6.05
2024-01-16T12:32:12.644Z,3.17
2024-01-16T12:34:47.091Z,3.90
2024-01-16T12:37:14.297Z,7.78
2024-01-16T12:39:42.614Z,4.40
2024-01-16T12:42:13.523Z,2.97
2024-01-16T12:44:40.352Z,6.32
2024-01-16T12:47:06.892Z,4.35
2024-01-16T12:49:33.514Z,4.05
2024-01-16T12:52:15.645Z,8.75
2024-01-16T12:54:42.067Z,3.13
2024-01-16T12:57:11.244Z,2.40
2024-01-16T12:59:37.817Z,2.72
2024-01-16T13:02:04.694Z,2.28
2024-01-16T13:04:31.124Z,3.17
2024-01-16T13:07:04.565Z,1.90
2024-01-16T13:09:31.447Z,3.33
2024-01-16T13:11:59.596Z,2.33
2024-01-16T13:14:26.362Z,3.33
2024-01-16T13:16:53.289Z,3.00
2024-01-16T13:19:20.537Z,2.60
2024-01-16T13:21:47.249Z,2.22
2024-01-16T13:24:18.728Z,3.40
2024-01-16T13:26:45.307Z,3.78
2024-01-16T13:29:11.742Z,3.00
2024-01-16T13:31:38.147Z,3.75
2024-01-16T13:34:05.551Z,4.55
2024-01-16T13:36:47.234Z,3.25
2024-01-16T13:39:18.616Z,3.85
2024-01-16T13:41:45.109Z,4.65
2024-01-16T13:44:12.222Z,3.05
2024-01-16T13:49:08.821Z,3.65
2024-01-16T13:51:35.453Z,2.90
2024-01-16T13:54:01.966Z,2.10
2024-01-16T13:56:46.168Z,2.35
2024-01-16T13:59:15.029Z,1.50
2024-01-16T14:01:42.072Z,2.47
2024-01-16T14:04:08.609Z,2.50
2024-01-16T14:06:48.465Z,2.28
2024-01-16T14:09:22.015Z,1.73
2024-01-16T14:11:48.638Z,2.67
2024-01-16T14:14:15.212Z,2.45
2024-01-16T14:16:51.225Z,2.42
2024-01-16T14:19:22.027Z,2.15
2024-01-16T14:21:48.931Z,1.85
2024-01-16T14:24:15.797Z,2.25
2024-01-16T14:26:45.685Z,2.00
2024-01-16T14:29:12.538Z,1.92
2024-01-16T14:31:38.976Z,1.92
2024-01-16T14:34:05.459Z,2.97
2024-01-16T14:36:31.829Z,3.72
2024-01-16T14:38:58.206Z,1.90
2024-01-16T14:41:24.620Z,1.27
2024-01-16T14:43:51.059Z,1.45
2024-01-16T14:46:17.456Z,1.42
2024-01-16T14:48:47.132Z,1.67
2024-01-16T14:51:13.772Z,2.40
2024-01-16T14:53:40.395Z,2.30
2024-01-16T14:56:06.800Z,2.33
2024-01-16T14:58:33.277Z,2.22
2024-01-16T15:00:59.768Z,2.80
2024-01-16T15:03:26.280Z,2.85
2024-01-16T15:05:54.437Z,2.28
2024-01-16T15:08:21.160Z,2.17
2024-01-16T15:10:48.745Z,2.50
2024-01-16T15:13:15.324Z,3.03
2024-01-16T15:15:41.813Z,2.53
2024-01-16T15:18:08.359Z,2.85
2024-01-16T15:20:34.918Z,2.70
2024-01-16T15:23:01.478Z,3.17
2024-01-16T15:25:27.843Z,3.10
2024-01-16T15:27:55.220Z,3.50
2024-01-16T15:30:32.550Z,2.90
2024-01-16T15:32:59.307Z,2.83
2024-01-16T15:35:25.778Z,3.08
2024-01-16T15:37:52.375Z,2.80
2024-01-16T15:40:20.267Z,3.15
2024-01-16T15:42:46.808Z,2.83
2024-01-16T15:45:13.341Z,2.85
2024-01-16T15:47:39.903Z,2.85
2024-01-16T15:50:06.692Z,3.33
2024-01-16T15:52:33.175Z,2.38
2024-01-16T15:55:00.237Z,3.20
2024-01-16T15:57:26.705Z,3.13
2024-01-16T15:59:53.311Z,2.92
2024-01-16T16:02:19.962Z,3.47
2024-01-16T16:04:46.504Z,2.90
2024-01-16T16:07:14.338Z,3.28
2024-01-16T16:09:41.271Z,3.00
2024-01-16T16:12:08.133Z,3.42
2024-01-16T16:14:36.234Z,2.70
2024-01-16T16:17:05.692Z,3.50
2024-01-16T16:19:32.551Z,3.55
2024-01-16T16:21:59.264Z,3.15
2024-01-16T16:24:27.080Z,2.90
2024-01-16T16:26:54.746Z,3.17
2024-01-16T16:29:21.779Z,2.80
2024-01-16T16:31:48.291Z,3.75
2024-01-16T16:34:19.283Z,3.70
2024-01-16T16:36:45.952Z,3.58
2024-01-16T16:39:14.402Z,3.78
2024-01-16T16:41:41.936Z,3.15
2024-01-16T16:44:08.593Z,3.15
2024-01-16T16:46:34.939Z,3.42
2024-01-16T16:49:01.408Z,3.42
2024-01-16T16:51:28.267Z,3.67
2024-01-16T16:53:55.347Z,3.20
2024-01-16T16:56:22.194Z,3.45
2024-01-16T16:58:50.394Z,3.80
2024-01-16T17:01:17.544Z,3.50
2024-01-16T17:03:46.383Z,3.42
2024-01-16T17:06:13.591Z,3.17
2024-01-16T17:08:40.992Z,3.65
2024-01-16T17:11:10.718Z,3.25
2024-01-16T17:13:37.755Z,3.33
2024-01-16T17:16:04.300Z,3.08
2024-01-16T17:18:34.353Z,3.95
2024-01-16T17:21:01.346Z,3.47
2024-01-16T17:23:27.930Z,3.75
2024-01-16T17:25:54.597Z,3.88
2024-01-16T17:28:23.901Z,3.88
2024-01-16T17:30:50.920Z,4.07
2024-01-16T17:33:17.765Z,4.25
2024-01-16T17:35:45.081Z,3.80
2024-01-16T17:38:11.570Z,3.60
2024-01-16T17:40:38.034Z,4.40
2024-01-16T17:43:04.549Z,3.83
2024-01-16T17:45:30.965Z,3.70
2024-01-16T17:47:57.552Z,3.95
2024-01-16T17:50:25.482Z,3.75
2024-01-16T17:52:53.180Z,4.93
2024-01-16T17:55:20.574Z,3.65
2024-01-16T17:57:47.679Z,4.20
2024-01-16T18:00:14.496Z,4.20
2024-01-16T18:02:41.101Z,3.58
2024-01-16T18:05:17.618Z,5.55
2024-01-16T18:07:44.618Z,3.63
2024-01-16T18:10:11.090Z,3.67
2024-01-16T18:12:41.062Z,4.03
2024-01-16T18:15:13.376Z,3.65
2024-01-16T18:17:40.756Z,3.63
2024-01-16T18:20:13.415Z,4.22
2024-01-16T18:22:39.745Z,3.17
2024-01-16T18:25:07.568Z,4.25
2024-01-16T18:27:34.701Z,3.55
2024-01-16T18:30:01.523Z,4.95
2024-01-16T18:32:28.605Z,4.45
2024-01-16T18:34:55.103Z,4.82
2024-01-16T18:37:21.933Z,4.15
2024-01-16T18:39:49.169Z,4.07
2024-01-16T18:42:15.550Z,4.28
2024-01-16T18:44:41.987Z,4.07
2024-01-16T18:47:09.045Z,4.50
2024-01-16T18:49:35.501Z,5.07
2024-01-16T18:52:05.109Z,4.55
2024-01-16T18:54:33.033Z,4.15
2024-01-16T18:56:59.644Z,5.35
2024-01-16T18:59:26.266Z,3.97
2024-01-16T19:01:53.993Z,4.90
2024-01-16T19:04:21.468Z,5.10
2024-01-16T19:06:51.374Z,4.60
2024-01-16T19:09:21.360Z,4.30
2024-01-16T19:11:51.454Z,4.72
2024-01-16T19:14:18.314Z,4.93
2024-01-16T19:16:45.333Z,4.90
2024-01-16T19:19:11.822Z,5.00
2024-01-16T19:21:38.799Z,4.47
2024-01-16T19:24:05.496Z,3.90
2024-01-16T19:26:31.898Z,4.50
2024-01-16T19:28:58.290Z,4.90
2024-01-16T19:31:24.693Z,4.47
2024-01-16T19:33:51.322Z,4.00
2024-01-16T19:36:18.535Z,4.03
2024-01-16T19:38:44.987Z,4.00
2024-01-16T19:41:12.682Z,4.03
2024-01-16T19:43:39.037Z,4.40
2024-01-16T19:46:05.666Z,4.05
2024-01-16T19:48:35.896Z,4.57
2024-01-16T19:51:02.742Z,4.18
2024-01-16T19:53:29.170Z,4.78
2024-01-16T19:55:59.490Z,5.75
2024-01-16T19:58:25.857Z,3.85
2024-01-16T20:00:52.623Z,4.93
2024-01-16T20:03:19.810Z,3.55
2024-01-16T20:05:46.850Z,3.78
2024-01-16T20:08:13.255Z,5.55
2024-01-16T20:10:40.100Z,4.57
2024-01-16T20:13:07.845Z,5.00
2024-01-16T20:15:34.450Z,4.45
2024-01-16T20:18:02.707Z,4.00
2024-01-16T20:20:30.312Z,5.07
2024-01-16T20:22:57.273Z,4.30
2024-01-16T20:25:24.820Z,4.15
2024-01-16T20:27:52.234Z,4.30
2024-01-16T20:30:19.183Z,4.03
2024-01-16T20:32:50.829Z,3.67
2024-01-16T20:35:21.023Z,4.70
2024-01-16T20:37:47.561Z,4.45
2024-01-16T20:40:13.998Z,4.15
2024-01-16T20:42:40.410Z,4.72
2024-01-16T20:45:07.383Z,3.75
2024-01-16T20:47:34.421Z,3.97
2024-01-16T20:50:00.948Z,4.18
2024-01-16T20:52:27.439Z,4.03
2024-01-16T20:54:54.025Z,4.65
2024-01-16T20:57:20.443Z,4.68
2024-01-16T20:59:47.008Z,4.43
2024-01-16T21:02:13.806Z,7.18
2024-01-16T21:04:40.296Z,7.18
2024-01-16T21:07:06.912Z,5.35
2024-01-16T21:09:34.009Z,5.18
2024-01-16T21:12:02.723Z,5.70
2024-01-16T21:14:31.054Z,5.28
2024-01-16T21:16:58.193Z,4.70
2024-01-16T21:19:24.685Z,5.22
2024-01-16T21:21:56.157Z,4.40
2024-01-16T21:24:22.688Z,5.30
2024-01-16T21:26:50.018Z,4.80
2024-01-16T21:29:16.763Z,5.50
2024-01-16T21:31:47.612Z,4.57
2024-01-16T21:34:16.124Z,6.00
2024-01-16T21:36:42.779Z,5.45
2024-01-16T21:39:09.574Z,5.65
2024-01-16T21:41:36.469Z,6.35
2024-01-16T21:44:03.095Z,6.07
2024-01-16T21:46:29.458Z,5.63
2024-01-16T21:48:55.867Z,6.20
2024-01-16T21:51:23.384Z,5.70
2024-01-16T21:53:49.799Z,5.88
2024-01-16T21:56:16.161Z,5.50
2024-01-16T21:58:42.738Z,5.10
2024-01-16T22:01:11.484Z,5.57
2024-01-16T22:03:38.308Z,5.43
2024-01-16T22:06:05.389Z,6.97
2024-01-16T22:08:31.903Z,5.90
2024-01-16T22:10:58.312Z,6.32
2024-01-16T22:13:24.722Z,5.22
2024-01-16T22:15:54.153Z,5.65
2024-01-16T22:18:20.703Z,6.07
2024-01-16T22:20:47.376Z,6.00
2024-01-16T22:23:14.024Z,7.20
2024-01-16T22:25:41.055Z,6.65
2024-01-16T22:28:07.629Z,7.10
2024-01-16T22:30:35.065Z,6.97
2024-01-16T22:33:03.067Z,6.80
2024-01-16T22:35:30.385Z,6.28
2024-01-16T22:37:56.829Z,7.47
2024-01-16T22:40:23.181Z,6.60
2024-01-16T22:42:49.535Z,6.45
2024-01-16T22:45:17.197Z,6.50
2024-01-16T22:47:44.250Z,6.07
2024-01-16T22:50:12.743Z,6.50
2024-01-16T22:52:39.074Z,6.32
2024-01-16T22:55:05.900Z,7.03
2024-01-16T22:57:33.300Z,6.75
2024-01-16T23:00:00.286Z,6.53
2024-01-16T23:02:29.943Z,7.03
2024-01-16T23:04:56.701Z,7.03
2024-01-16T23:07:23.112Z,6.65
2024-01-16T23:09:49.555Z,6.70
2024-01-16T23:12:16.072Z,7.53
2024-01-16T23:14:42.931Z,7.05
2024-01-16T23:17:09.295Z,7.47
2024-01-16T23:19:35.827Z,7.07
2024-01-16T23:22:02.422Z,8.05
2024-01-16T23:24:29.248Z,7.30
2024-01-16T23:26:55.766Z,7.47
2024-01-16T23:29:23.573Z,7.57
2024-01-16T23:31:49.926Z,7.63
2024-01-16T23:34:16.349Z,7.95
2024-01-16T23:36:42.780Z,6.93
2024-01-16T23:39:11.990Z,7.55
2024-01-16T23:41:38.974Z,7.57
2024-01-16T23:44:05.574Z,8.02
2024-01-16T23:46:35.736Z,7.88
2024-01-16T23:49:02.441Z,7.75
2024-01-16T23:51:28.935Z,8.43
2024-01-16T23:53:55.419Z,8.00
2024-01-16T23:56:22.607Z,7.90
2024-01-16T23:58:48.950Z,8.43
